createdAt,value
2022-08-16T00:00:20.417Z,99.90
2022-08-16T00:02:51.811Z,99.90
2022-08-16T00:05:21.202Z,99.90
2022-08-16T00:07:48.843Z,99.90
2022-08-16T00:10:25.687Z,99.90
2022-08-16T00:12:53.135Z,99.90
2022-08-16T00:15:50.856Z,99.90
2022-08-16T00:18:22.096Z,99.90
2022-08-16T00:20:57.189Z,99.90
2022-08-16T00:23:24.456Z,99.90
2022-08-16T00:26:34.926Z,99.90
2022-08-16T00:28:48.840Z,99.90
2022-08-16T00:31:24.308Z,99.90
2022-08-16T00:33:51.951Z,99.90
2022-08-16T00:36:20.153Z,99.90
2022-08-16T00:38:47.491Z,99.90
2022-08-16T00:41:15.521Z,99.90
2022-08-16T00:43:44.541Z,99.90
2022-08-16T00:46:35.334Z,99.90
2022-08-16T00:49:17.507Z,99.90
2022-08-16T00:51:47.380Z,99.90
2022-08-16T00:54:27.090Z,99.90
2022-08-16T00:56:59.710Z,99.90
2022-08-16T00:59:29.820Z,99.90
2022-08-16T01:02:01.133Z,99.90
2022-08-16T01:05:09.075Z,99.90
2022-08-16T01:07:50.508Z,99.90
2022-08-16T01:10:31.419Z,99.90
2022-08-16T01:13:12.393Z,99.90
2022-08-16T01:15:45.445Z,99.90
2022-08-16T01:18:40.617Z,99.90
2022-08-16T01:21:33.240Z,99.90
2022-08-16T01:24:45.318Z,99.90
2022-08-16T01:27:15.214Z,99.90
2022-08-16T01:30:34.201Z,99.90
2022-08-16T01:33:14.483Z,99.90
2022-08-16T01:35:52.336Z,99.90
2022-08-16T01:38:20.143Z,99.90
2022-08-16T01:40:51.394Z,99.90
2022-08-16T01:43:19.157Z,99.90
2022-08-16T01:45:47.113Z,99.90
2022-08-16T01:48:29.242Z,99.90
2022-08-16T01:51:09.376Z,99.90
2022-08-16T01:53:44.223Z,99.90
2022-08-16T01:56:23.124Z,99.90
2022-08-16T01:58:51.270Z,99.90
2022-08-16T02:01:18.786Z,99.90
2022-08-16T02:03:50.687Z,99.90
2022-08-16T02:06:34.593Z,99.90
2022-08-16T02:09:05.888Z,99.90
2022-08-16T02:11:47.764Z,99.90
2022-08-16T02:14:22.521Z,99.90
2022-08-16T02:17:01.667Z,99.90
2022-08-16T02:19:58.945Z,99.90
2022-08-16T02:22:33.841Z,99.90
2022-08-16T02:25:08.213Z,99.90
2022-08-16T02:27:37.446Z,99.90
2022-08-16T02:30:07.205Z,99.90
2022-08-16T02:32:49.319Z,99.90
2022-08-16T02:35:18.051Z,99.90
2022-08-16T02:37:52.397Z,99.90
2022-08-16T02:40:23.856Z,99.90
2022-08-16T02:42:53.856Z,99.90
2022-08-16T02:45:27.644Z,99.90
2022-08-16T02:48:01.818Z,99.90
2022-08-16T02:50:53.975Z,99.90
2022-08-16T02:53:29.887Z,99.90
2022-08-16T02:55:59.199Z,99.90
2022-08-16T02:58:28.370Z,99.90
2022-08-16T03:00:57.845Z,99.90
2022-08-16T03:03:26.796Z,99.90
2022-08-16T03:06:41.651Z,99.90
2022-08-16T03:09:13.595Z,99.90
2022-08-16T03:11:47.456Z,99.90
2022-08-16T03:14:21.263Z,99.90
2022-08-16T03:16:59.203Z,99.90
2022-08-16T03:19:45.823Z,99.90
2022-08-16T03:22:19.453Z,99.90
2022-08-16T03:25:01.027Z,99.90
2022-08-16T03:27:32.198Z,99.90
2022-08-16T03:30:16.709Z,99.90
2022-08-16T03:33:00.416Z,99.90
2022-08-16T03:35:35.649Z,99.90
2022-08-16T03:38:32.422Z,99.90
2022-08-16T03:41:05.136Z,99.90
2022-08-16T03:43:51.398Z,99.90
2022-08-16T03:46:44.933Z,99.90
2022-08-16T03:49:13.274Z,99.90
2022-08-16T03:51:43.848Z,99.90
2022-08-16T03:54:18.086Z,99.90
2022-08-16T03:56:57.666Z,99.90
2022-08-16T03:59:29.781Z,99.90
2022-08-16T04:02:01.553Z,99.90
2022-08-16T04:04:33.056Z,99.90
2022-08-16T04:07:04.297Z,99.90
2022-08-16T04:09:37.941Z,99.90
2022-08-16T04:12:11.404Z,99.90
2022-08-16T04:14:57.182Z,99.90
2022-08-16T04:17:26.884Z,99.90
2022-08-16T04:19:58.420Z,99.90
2022-08-16T04:22:29.516Z,99.90
2022-08-16T04:25:01.802Z,99.90
2022-08-16T04:27:34.539Z,99.90
2022-08-16T04:30:04.739Z,99.90
2022-08-16T04:32:42.281Z,99.90
2022-08-16T04:35:16.398Z,99.90
2022-08-16T04:37:46.475Z,99.90
2022-08-16T04:40:25.192Z,99.90
2022-08-16T04:42:54.676Z,99.90
2022-08-16T04:45:35.944Z,99.90
2022-08-16T04:48:08.557Z,99.90
2022-08-16T04:50:49.224Z,99.90
2022-08-16T04:53:19.852Z,99.90
2022-08-16T04:55:53.048Z,99.90
2022-08-16T04:58:45.191Z,99.90
2022-08-16T05:01:10.560Z,99.90
2022-08-16T05:03:41.945Z,99.90
2022-08-16T05:06:45.039Z,99.90
2022-08-16T05:09:26.140Z,99.90
2022-08-16T05:11:57.511Z,99.90
2022-08-16T05:14:45.988Z,99.90
2022-08-16T05:17:19.450Z,99.90
2022-08-16T05:19:58.088Z,99.90
2022-08-16T05:22:38.688Z,99.90
2022-08-16T05:25:08.919Z,99.90
2022-08-16T05:27:42.891Z,99.90
2022-08-16T05:30:35.749Z,99.90
2022-08-16T05:33:05.609Z,99.90
2022-08-16T05:35:36.386Z,99.90
2022-08-16T05:38:33.222Z,99.90
2022-08-16T05:41:03.874Z,99.90
2022-08-16T05:43:43.170Z,99.90
2022-08-16T05:46:30.446Z,99.90
2022-08-16T05:49:09.446Z,99.90
2022-08-16T05:51:41.675Z,99.90
2022-08-16T05:54:14.538Z,99.90
2022-08-16T05:56:42.917Z,99.90
2022-08-16T05:59:10.938Z,99.90
2022-08-16T06:01:39.413Z,99.90
2022-08-16T06:04:13.341Z,99.90
2022-08-16T06:06:57.864Z,99.90
2022-08-16T06:09:43.780Z,99.90
2022-08-16T06:12:27.415Z,99.90
2022-08-16T06:15:07.961Z,99.90
2022-08-16T06:17:42.576Z,99.90
2022-08-16T06:20:34.822Z,99.90
2022-08-16T06:23:17.651Z,99.90
2022-08-16T06:26:08.017Z,99.90
2022-08-16T06:28:41.827Z,99.90
2022-08-16T06:31:16.832Z,99.90
2022-08-16T06:33:47.496Z,99.90
2022-08-16T06:36:17.277Z,99.90
2022-08-16T06:38:59.731Z,99.90
2022-08-16T06:41:59.695Z,99.90
2022-08-16T06:44:44.780Z,99.90
2022-08-16T06:47:52.392Z,99.90
2022-08-16T06:50:22.161Z,99.90
2022-08-16T06:53:00.560Z,99.90
2022-08-16T06:55:34.332Z,99.90
2022-08-16T06:58:08.317Z,99.90
2022-08-16T07:00:38.357Z,99.90
2022-08-16T07:03:26.830Z,99.90
2022-08-16T07:05:59.452Z,99.90
2022-08-16T07:08:32.551Z,99.90
2022-08-16T07:11:00.063Z,99.90
2022-08-16T07:14:00.360Z,99.90
2022-08-16T07:16:20.504Z,99.90
2022-08-16T07:19:01.320Z,99.90
2022-08-16T07:21:46.654Z,99.90
2022-08-16T07:24:30.593Z,99.90
2022-08-16T07:27:08.341Z,99.90
2022-08-16T07:29:37.628Z,99.90
2022-08-16T07:32:09.016Z,99.90
2022-08-16T07:34:37.653Z,99.90
2022-08-16T07:37:15.679Z,99.90
2022-08-16T07:40:11.086Z,99.90
2022-08-16T07:42:40.079Z,99.90
2022-08-16T07:45:10.609Z,99.90
2022-08-16T07:47:44.609Z,99.90
2022-08-16T07:50:56.950Z,99.90
2022-08-16T07:53:02.401Z,99.90
2022-08-16T07:55:45.709Z,99.90
2022-08-16T07:58:34.574Z,99.90
2022-08-16T08:01:10.792Z,99.90
2022-08-16T08:03:50.234Z,99.90
2022-08-16T08:06:29.038Z,99.90
2022-08-16T08:09:03.998Z,99.90
2022-08-16T08:11:32.417Z,99.90
2022-08-16T08:14:03.755Z,99.90
2022-08-16T08:16:45.398Z,99.90
2022-08-16T08:19:40.338Z,99.90
2022-08-16T08:22:10.254Z,99.90
2022-08-16T08:24:59.189Z,99.90
2022-08-16T08:27:27.588Z,99.90
2022-08-16T08:30:49.577Z,99.90
2022-08-16T08:32:59.750Z,99.90
2022-08-16T08:35:33.352Z,99.90
2022-08-16T08:38:02.817Z,99.90
2022-08-16T08:40:32.448Z,99.90
2022-08-16T08:43:12.158Z,99.90
2022-08-16T08:45:52.765Z,99.90
2022-08-16T08:48:33.648Z,99.90
2022-08-16T08:51:08.812Z,99.90
2022-08-16T08:53:57.774Z,99.90
2022-08-16T08:56:35.059Z,98.80
2022-08-16T08:59:20.897Z,98.20
2022-08-16T09:01:57.429Z,97.70
2022-08-16T09:04:29.835Z,98.10
2022-08-16T09:07:01.096Z,97.70
2022-08-16T09:09:33.837Z,97.60
2022-08-16T09:12:06.813Z,97.70
2022-08-16T09:15:05.434Z,96.90
2022-08-16T09:17:48.722Z,97.20
2022-08-16T09:20:17.205Z,97.20
2022-08-16T09:22:52.395Z,95.70
2022-08-16T09:25:26.048Z,96.50
2022-08-16T09:27:57.657Z,96.10
2022-08-16T09:30:36.104Z,96.30
2022-08-16T09:33:12.240Z,96.30
2022-08-16T09:35:42.435Z,95.60
2022-08-16T09:38:12.459Z,96.20
2022-08-16T09:40:59.097Z,96.40
2022-08-16T09:43:58.807Z,95.50
2022-08-16T09:46:44.560Z,94.70
2022-08-16T09:49:03.839Z,95.50
2022-08-16T09:51:36.473Z,94.80
2022-08-16T09:54:05.033Z,94.70
2022-08-16T09:56:34.393Z,94.70
2022-08-16T09:59:07.896Z,93.90
2022-08-16T10:01:43.349Z,93.90
2022-08-16T10:04:30.927Z,93.10
2022-08-16T10:09:45.014Z,92.20
2022-08-16T10:12:42.194Z,91.70
2022-08-16T10:15:15.416Z,91.30
2022-08-16T10:18:00.820Z,91.70
2022-08-16T10:20:34.858Z,92.00
2022-08-16T10:23:07.974Z,91.10
2022-08-16T10:27:00.584Z,90.90
2022-08-16T10:28:31.995Z,90.30
2022-08-16T10:31:04.403Z,89.60
2022-08-16T10:33:34.177Z,89.20
2022-08-16T10:36:08.004Z,90.10
2022-08-16T10:38:37.981Z,88.90
2022-08-16T10:41:07.254Z,89.10
2022-08-16T10:43:36.481Z,89.80
2022-08-16T10:46:40.119Z,89.40
2022-08-16T10:48:55.123Z,88.60
2022-08-16T10:51:33.457Z,89.90
2022-08-16T10:54:02.770Z,89.70
2022-08-16T10:56:52.893Z,87.60
2022-08-16T10:59:43.964Z,87.90
2022-08-16T11:02:59.864Z,87.50
2022-08-16T11:05:10.648Z,89.10
2022-08-16T11:07:43.444Z,83.20
2022-08-16T11:11:04.846Z,85.00
2022-08-16T11:16:00.768Z,87.00
2022-08-16T11:19:03.237Z,84.90
2022-08-16T11:21:29.482Z,83.50
2022-08-16T11:23:58.871Z,84.60
2022-08-16T11:26:27.285Z,86.00
2022-08-16T11:29:14.461Z,86.90
2022-08-16T11:31:45.420Z,86.20
2022-08-16T11:34:14.343Z,86.40
2022-08-16T11:36:59.301Z,85.20
2022-08-16T11:39:29.420Z,85.90
2022-08-16T11:41:57.881Z,87.40
2022-08-16T11:44:52.957Z,87.30
2022-08-16T11:47:12.809Z,85.50
2022-08-16T11:49:40.063Z,86.70
2022-08-16T11:52:07.529Z,85.30
2022-08-16T11:54:36.779Z,87.90
2022-08-16T11:57:09.278Z,85.50
2022-08-16T11:59:39.583Z,87.10
2022-08-16T12:02:31.460Z,85.10
2022-08-16T12:04:55.946Z,87.10
2022-08-16T12:07:23.611Z,85.60
2022-08-16T12:09:53.193Z,85.70
2022-08-16T12:12:23.418Z,86.80
2022-08-16T12:14:59.242Z,86.40
2022-08-16T12:17:31.856Z,86.80
2022-08-16T12:20:05.117Z,83.60
2022-08-16T12:22:36.739Z,81.80
2022-08-16T12:25:10.413Z,83.60
2022-08-16T12:27:39.489Z,82.60
2022-08-16T12:30:21.220Z,85.90
2022-08-16T12:32:54.705Z,84.60
2022-08-16T12:35:26.227Z,84.10
2022-08-16T12:37:58.478Z,83.10
2022-08-16T12:40:31.996Z,83.90
2022-08-16T12:43:01.485Z,84.60
2022-08-16T12:45:34.174Z,82.60
2022-08-16T12:48:33.728Z,81.20
2022-08-16T12:51:04.338Z,83.00
2022-08-16T12:53:31.884Z,79.60
2022-08-16T12:56:00.283Z,82.70
2022-08-16T12:58:49.577Z,80.40
2022-08-16T13:01:15.195Z,81.10
2022-08-16T13:03:44.744Z,80.70
2022-08-16T13:06:13.008Z,80.40
2022-08-16T13:08:47.073Z,79.80
2022-08-16T13:11:17.696Z,79.80
2022-08-16T13:13:44.953Z,80.90
2022-08-16T13:16:20.371Z,80.00
2022-08-16T13:18:52.873Z,82.30
2022-08-16T13:21:23.662Z,81.00
2022-08-16T13:23:55.500Z,81.90
2022-08-16T13:26:24.203Z,81.70
2022-08-16T13:28:54.153Z,82.00
2022-08-16T13:31:21.891Z,84.20
2022-08-16T13:33:51.081Z,85.20
2022-08-16T13:36:46.081Z,85.40
2022-08-16T13:39:12.727Z,86.40
2022-08-16T13:41:40.795Z,86.00
2022-08-16T13:44:09.137Z,85.70
2022-08-16T13:46:37.286Z,87.10
2022-08-16T13:49:05.859Z,86.50
2022-08-16T13:51:33.345Z,86.40
2022-08-16T13:54:05.959Z,85.10
2022-08-16T13:56:38.052Z,86.40
2022-08-16T13:59:20.667Z,86.60
2022-08-16T14:01:54.941Z,87.10
2022-08-16T14:04:39.716Z,88.30
2022-08-16T14:07:10.518Z,86.90
2022-08-16T14:09:38.365Z,88.10
2022-08-16T14:12:17.674Z,87.00
2022-08-16T14:14:45.540Z,84.60
2022-08-16T14:17:14.384Z,83.80
2022-08-16T14:19:46.038Z,85.30
2022-08-16T14:22:30.097Z,84.30
2022-08-16T14:25:00.133Z,84.20
2022-08-16T14:27:30.521Z,85.10
2022-08-16T14:29:59.191Z,85.30
2022-08-16T14:32:33.145Z,83.70
2022-08-16T14:35:07.389Z,84.20
2022-08-16T14:37:35.615Z,82.70
2022-08-16T14:40:04.039Z,82.00
2022-08-16T14:42:32.517Z,81.70
2022-08-16T14:45:05.135Z,82.70
2022-08-16T14:47:34.898Z,80.80
2022-08-16T14:50:02.890Z,81.40
2022-08-16T14:55:20.105Z,80.30
2022-08-16T14:57:47.678Z,81.20
2022-08-16T15:00:18.034Z,82.60
2022-08-16T15:02:49.877Z,82.30
2022-08-16T15:05:24.009Z,81.00
2022-08-16T15:07:52.651Z,81.20
2022-08-16T15:10:24.502Z,80.50
2022-08-16T15:12:58.483Z,82.70
2022-08-16T15:15:28.655Z,82.00
2022-08-16T15:17:57.378Z,83.20
2022-08-16T15:20:30.036Z,82.80
2022-08-16T15:23:00.388Z,82.60
2022-08-16T15:25:41.923Z,81.60
2022-08-16T15:28:23.924Z,81.00
2022-08-16T15:31:00.914Z,81.70
2022-08-16T15:33:32.875Z,82.80
2022-08-16T15:36:00.435Z,82.20
2022-08-16T15:38:43.556Z,83.30
2022-08-16T15:41:54.811Z,81.00
2022-08-16T15:44:26.250Z,82.30
2022-08-16T15:47:00.017Z,83.50
2022-08-16T15:49:38.022Z,83.60
2022-08-16T15:52:29.239Z,83.80
2022-08-16T15:55:07.511Z,83.20
2022-08-16T15:57:49.151Z,80.40
2022-08-16T16:00:20.787Z,81.70
2022-08-16T16:02:49.580Z,81.70
2022-08-16T16:05:18.981Z,80.00
2022-08-16T16:07:56.687Z,79.60
2022-08-16T16:10:37.437Z,79.90
2022-08-16T16:13:08.811Z,80.50
2022-08-16T16:15:41.316Z,81.20
2022-08-16T16:18:11.951Z,80.30
2022-08-16T16:20:47.107Z,81.00
2022-08-16T16:23:16.544Z,81.00
2022-08-16T16:25:45.065Z,81.70
2022-08-16T16:29:05.199Z,82.40
2022-08-16T16:31:08.774Z,81.40
2022-08-16T16:33:40.043Z,81.30
2022-08-16T16:36:08.120Z,81.10
2022-08-16T16:38:35.208Z,84.00
2022-08-16T16:41:09.396Z,80.90
2022-08-16T16:43:40.555Z,80.70
2022-08-16T16:46:40.222Z,82.30
2022-08-16T16:48:56.022Z,85.70
2022-08-16T16:51:24.631Z,89.40
2022-08-16T16:53:56.630Z,90.00
2022-08-16T16:56:31.316Z,90.10
2022-08-16T16:59:06.975Z,90.80
2022-08-16T17:01:56.608Z,90.50
2022-08-16T17:04:31.379Z,90.10
2022-08-16T17:07:03.121Z,90.20
2022-08-16T17:09:30.518Z,90.40
2022-08-16T17:11:58.745Z,90.70
2022-08-16T17:14:33.538Z,91.30
2022-08-16T17:17:09.426Z,91.30
2022-08-16T17:19:41.188Z,91.50
2022-08-16T17:22:15.177Z,91.00
2022-08-16T17:24:50.611Z,90.70
2022-08-16T17:27:32.970Z,90.60
2022-08-16T17:30:14.921Z,90.60
2022-08-16T17:32:48.018Z,90.90
2022-08-16T17:35:55.436Z,91.00
2022-08-16T17:38:33.075Z,90.80
2022-08-16T17:41:11.620Z,90.90
2022-08-16T17:43:43.918Z,91.40
2022-08-16T17:46:50.358Z,91.80
2022-08-16T17:49:00.125Z,91.50
2022-08-16T17:51:27.613Z,91.70
2022-08-16T17:53:55.077Z,91.70
2022-08-16T17:56:22.323Z,91.50
2022-08-16T17:58:49.320Z,91.70
2022-08-16T18:01:18.297Z,91.50
2022-08-16T18:04:07.556Z,92.30
2022-08-16T18:06:32.575Z,92.70
2022-08-16T18:09:03.461Z,93.60
2022-08-16T18:11:33.896Z,93.40
2022-08-16T18:14:01.630Z,93.80
2022-08-16T18:16:28.671Z,93.80
2022-08-16T18:18:55.743Z,93.40
2022-08-16T18:21:41.872Z,93.40
2022-08-16T18:24:10.867Z,93.50
2022-08-16T18:26:39.181Z,93.80
2022-08-16T18:29:06.533Z,93.90
2022-08-16T18:31:34.193Z,94.00
2022-08-16T18:34:01.683Z,93.80
2022-08-16T18:36:29.028Z,94.00
2022-08-16T18:38:56.153Z,95.10
2022-08-16T18:41:25.943Z,95.00
2022-08-16T18:44:00.866Z,94.70
2022-08-16T18:46:48.876Z,94.60
2022-08-16T18:49:19.023Z,95.00
2022-08-16T18:51:46.208Z,95.50
2022-08-16T18:54:16.453Z,96.00
2022-08-16T18:56:55.719Z,96.20
2022-08-16T18:59:29.561Z,96.50
2022-08-16T19:02:00.578Z,96.40
2022-08-16T19:04:56.754Z,96.00
2022-08-16T19:07:29.565Z,95.90
2022-08-16T19:10:00.169Z,96.30
2022-08-16T19:12:38.740Z,96.60
2022-08-16T19:15:12.032Z,96.70
2022-08-16T19:17:40.943Z,97.40
2022-08-16T19:20:11.011Z,97.60
2022-08-16T19:23:02.304Z,97.50
2022-08-16T19:25:46.258Z,97.60
2022-08-16T19:28:50.093Z,97.70
2022-08-16T19:31:04.879Z,97.70
2022-08-16T19:33:32.638Z,97.80
2022-08-16T19:35:59.803Z,98.80
2022-08-16T19:38:26.793Z,99.10
2022-08-16T19:40:53.980Z,99.20
2022-08-16T19:43:22.100Z,99.10
2022-08-16T19:45:49.914Z,99.00
2022-08-16T19:48:17.288Z,99.50
2022-08-16T19:50:44.604Z,99.60
2022-08-16T19:53:18.676Z,99.40
2022-08-16T19:55:47.620Z,99.90
2022-08-16T19:58:17.253Z,99.90
2022-08-16T20:00:46.021Z,99.70
2022-08-16T20:03:17.839Z,99.60
2022-08-16T20:05:45.725Z,99.70
2022-08-16T20:08:13.471Z,99.60
2022-08-16T20:10:42.921Z,99.50
2022-08-16T20:13:15.918Z,99.90
2022-08-16T20:15:44.419Z,99.90
2022-08-16T20:18:21.341Z,99.90
2022-08-16T20:20:52.986Z,99.90
2022-08-16T20:23:24.387Z,99.90
2022-08-16T20:25:55.654Z,99.90
2022-08-16T20:28:52.065Z,99.90
2022-08-16T20:31:12.083Z,99.90
2022-08-16T20:33:39.287Z,99.90
2022-08-16T20:36:06.716Z,99.90
2022-08-16T20:38:35.341Z,99.90
2022-08-16T20:41:02.472Z,99.90
2022-08-16T20:43:29.572Z,99.90
2022-08-16T20:45:56.611Z,99.90
2022-08-16T20:48:23.644Z,99.90
2022-08-16T20:50:50.716Z,99.90
2022-08-16T20:53:18.004Z,99.90
2022-08-16T20:55:45.666Z,99.90
2022-08-16T20:58:12.706Z,99.90
2022-08-16T21:00:40.044Z,99.90
2022-08-16T21:03:08.706Z,99.90
2022-08-16T21:05:36.054Z,99.90
2022-08-16T21:08:27.902Z,99.90
2022-08-16T21:10:50.718Z,99.90
2022-08-16T21:13:18.741Z,99.90
2022-08-16T21:15:45.840Z,99.90
2022-08-16T21:18:12.862Z,99.90
2022-08-16T21:20:39.887Z,99.90
2022-08-16T21:23:08.992Z,99.90
2022-08-16T21:25:39.663Z,99.90
2022-08-16T21:28:41.500Z,99.90
2022-08-16T21:31:11.791Z,99.90
2022-08-16T21:33:39.383Z,99.90
2022-08-16T21:36:06.693Z,99.90
2022-08-16T21:38:33.797Z,99.90
2022-08-16T21:41:02.392Z,99.90
2022-08-16T21:43:32.729Z,99.90
2022-08-16T21:46:04.864Z,99.90
2022-08-16T21:48:35.278Z,99.90
2022-08-16T21:51:13.004Z,99.90
2022-08-16T21:53:41.843Z,99.90
2022-08-16T21:56:16.457Z,99.90
2022-08-16T21:58:44.419Z,99.90
2022-08-16T22:01:11.396Z,99.90
2022-08-16T22:03:38.487Z,99.90
2022-08-16T22:06:12.971Z,99.90
2022-08-16T22:08:50.500Z,99.90
2022-08-16T22:11:20.544Z,99.90
2022-08-16T22:13:51.196Z,99.90
2022-08-16T22:16:28.196Z,99.90
2022-08-16T22:18:55.505Z,99.90
2022-08-16T22:21:22.562Z,99.90
2022-08-16T22:23:55.230Z,99.90
2022-08-16T22:26:32.421Z,99.90
2022-08-16T22:29:05.896Z,99.90
2022-08-16T22:31:34.191Z,99.90
2022-08-16T22:34:02.316Z,99.90
2022-08-16T22:36:31.176Z,99.90
2022-08-16T22:38:59.602Z,99.90
2022-08-16T22:41:28.626Z,99.90
2022-08-16T22:43:56.078Z,99.90
2022-08-16T22:46:23.636Z,99.90
2022-08-16T22:48:51.320Z,99.90
2022-08-16T22:51:20.282Z,99.90
2022-08-16T22:53:47.911Z,99.90
2022-08-16T22:56:15.761Z,99.90
2022-08-16T22:58:43.175Z,99.90
2022-08-16T23:01:12.853Z,99.90
2022-08-16T23:03:40.360Z,99.90
2022-08-16T23:06:08.315Z,99.90
2022-08-16T23:08:40.588Z,99.90
2022-08-16T23:11:15.134Z,99.90
2022-08-16T23:13:52.678Z,99.90
2022-08-16T23:16:24.926Z,99.90
2022-08-16T23:19:00.578Z,99.90
2022-08-16T23:21:27.888Z,99.90
2022-08-16T23:23:54.943Z,99.90
2022-08-16T23:26:46.316Z,99.90
2022-08-16T23:29:21.170Z,99.90
2022-08-16T23:31:58.082Z,99.90
2022-08-16T23:34:27.025Z,99.90
2022-08-16T23:36:54.383Z,99.90
2022-08-16T23:39:22.578Z,99.90
2022-08-16T23:41:49.642Z,99.90
2022-08-16T23:44:57.362Z,99.90
2022-08-16T23:47:06.154Z,99.90
2022-08-16T23:49:57.512Z,99.90
2022-08-16T23:52:53.878Z,99.90
2022-08-16T23:55:08.796Z,99.90
2022-08-16T23:57:35.735Z,99.90
